Time;durP1;ratioP1;P1;durP2;ratioP2;P2;SDS_P1;SDS_P2;PMS_P1;PMS_P2;Temp;Humidity;BMP_temperature;BMP_pressure;BME280_temperature;BME280_humidity;BME280_pressure;Samples;Min_cycle;Max_cycle;Signal;HPM_P1;HPM_P2
2021/05/15 00:00:43;;;;;;;4.93;2.88;;;308.10;2304.00;;;;;;4869496;29;20029;-83
2021/05/15 00:03:08;;;;;;;4.55;1.98;;;308.10;2304.00;;;;;;4867491;29;20060;-83
2021/05/15 00:05:34;;;;;;;5.55;2.17;;;308.00;2304.00;;;;;;4866069;29;20105;-83
2021/05/15 00:08:03;;;;;;;3.63;2.33;;;308.00;2304.00;;;;;;4865872;29;20036;-87
2021/05/15 00:10:30;;;;;;;5.57;2.25;;;307.90;2304.00;;;;;;4882513;29;20194;-84
2021/05/15 00:12:55;;;;;;;4.82;2.50;;;307.90;2304.00;;;;;;4877200;29;20037;-84
2021/05/15 00:18:26;;;;;;;7.20;3.88;;;307.90;2304.00;;;;;;4899554;29;20567;-83
2021/05/15 00:20:55;;;;;;;11.00;3.47;;;307.80;2304.00;;;;;;4887192;29;20045;-82
2021/05/15 00:23:20;;;;;;;11.40;3.33;;;307.80;2304.00;;;;;;4901696;29;20040;-83
2021/05/15 00:25:46;;;;;;;12.07;4.07;;;307.80;2304.00;;;;;;4879901;29;20029;-82
2021/05/15 00:28:12;;;;;;;10.88;4.35;;;307.80;2304.00;;;;;;4879975;29;20101;-83
2021/05/15 00:30:38;;;;;;;10.10;3.40;;;307.80;2304.00;;;;;;4868287;29;20059;-83
2021/05/15 00:33:04;;;;;;;5.60;3.55;;;307.80;2304.00;;;;;;4865004;29;20028;-83
2021/05/15 00:35:30;;;;;;;8.60;4.25;;;307.80;2304.00;;;;;;4864603;29;20064;-82
2021/05/15 00:37:55;;;;;;;7.65;4.20;;;307.80;2304.00;;;;;;4865256;29;20431;-84
2021/05/15 00:40:21;;;;;;;14.02;6.07;;;307.80;2278.40;;;;;;4865566;29;20478;-83
2021/05/15 00:42:47;;;;;;;6.95;4.32;;;307.90;2304.00;;;;;;4865816;29;20501;-85
2021/05/15 00:45:15;;;;;;;6.78;4.07;;;307.90;2304.00;;;;;;4864308;29;20060;-83
2021/05/15 00:47:41;;;;;;;9.00;4.22;;;307.80;2304.00;;;;;;4865723;29;20478;-83
2021/05/15 00:50:10;;;;;;;7.38;3.30;;;307.90;2304.00;;;;;;4865615;29;20041;-85
2021/05/15 00:52:36;;;;;;;4.57;2.63;;;307.80;2304.00;;;;;;4863951;29;20033;-82
2021/05/15 00:55:14;;;;;;;4.80;3.05;;;307.80;2304.00;;;;;;4865134;29;20124;-83
2021/05/15 00:57:41;;;;;;;7.88;2.70;;;307.80;2304.00;;;;;;4865344;29;20056;-83
2021/05/15 01:00:09;;;;;;;8.52;3.40;;;307.70;2304.00;;;;;;4865139;29;20040;-83
2021/05/15 01:02:36;;;;;;;6.97;2.88;;;307.70;2304.00;;;;;;4880817;29;20044;-83
2021/05/15 01:05:03;;;;;;;4.55;2.65;;;308.00;2304.00;;;;;;4849704;29;20033;-83
2021/05/15 01:07:30;;;;;;;8.40;4.20;;;307.60;2304.00;;;;;;4864851;29;20089;-86
2021/05/15 01:09:56;;;;;;;7.63;3.60;;;307.60;2304.00;;;;;;4881822;29;20079;-83
2021/05/15 01:12:23;;;;;;;6.40;3.50;;;307.60;2304.00;;;;;;4866048;29;20022;-83
2021/05/15 01:14:49;;;;;;;6.78;3.30;;;307.60;2304.00;;;;;;4865602;29;20131;-83
2021/05/15 01:17:15;;;;;;;4.55;2.60;;;307.50;2304.00;;;;;;4867239;29;20064;-83
2021/05/15 01:19:42;;;;;;;4.53;2.88;;;307.50;2304.00;;;;;;4866666;29;20063;-82
2021/05/15 01:22:13;;;;;;;3.83;2.95;;;307.50;2304.00;;;;;;4865872;29;20032;-83
2021/05/15 01:24:40;;;;;;;6.72;2.80;;;307.50;2304.00;;;;;;4865742;29;20039;-84
2021/05/15 01:27:07;;;;;;;5.22;2.28;;;307.50;2304.00;;;;;;4865316;29;20062;-83
2021/05/15 01:29:34;;;;;;;6.22;3.03;;;307.40;2304.00;;;;;;4865179;29;20032;-83
2021/05/15 01:32:00;;;;;;;2.83;2.38;;;307.30;2304.00;;;;;;4864639;29;20116;-84
2021/05/15 01:34:26;;;;;;;6.28;2.83;;;307.30;2304.00;;;;;;4864644;29;20048;-83
2021/05/15 01:36:52;;;;;;;9.57;2.72;;;282.50;2278.40;;;;;;4865683;29;20478;-83
2021/05/15 01:39:18;;;;;;;6.78;2.88;;;282.50;2278.40;;;;;;4864764;29;20068;-84
2021/05/15 01:41:45;;;;;;;9.20;2.80;;;282.50;2278.40;;;;;;4864925;29;20037;-82
2021/05/15 01:44:11;;;;;;;6.13;2.80;;;282.50;2278.40;;;;;;4864259;29;20041;-83
2021/05/15 01:46:45;;;;;;;6.30;3.17;;;282.50;2278.40;;;;;;4880938;29;20047;-85
2021/05/15 01:49:26;;;;;;;7.85;3.55;;;307.20;2304.00;;;;;;4864615;29;20056;-83
2021/05/15 01:51:53;;;;;;;11.27;3.50;;;282.50;2278.40;;;;;;4864091;29;20120;-85
2021/05/15 01:54:21;;;;;;;8.00;3.08;;;282.50;2278.40;;;;;;4865636;29;20136;-83
2021/05/15 01:57:21;;;;;;;7.70;3.53;;;282.40;2278.40;;;;;;4864574;29;20025;-83
2021/05/15 01:59:52;;;;;;;7.28;3.65;;;282.30;2278.40;;;;;;4865150;29;20037;-83
2021/05/15 02:02:24;;;;;;;9.75;4.28;;;282.30;2278.40;;;;;;4864641;29;20041;-89
2021/05/15 02:07:36;;;;;;;7.13;3.13;;;282.50;2278.40;;;;;;4881917;29;20378;-83
2021/05/15 02:10:17;;;;;;;7.78;3.13;;;307.20;2304.00;;;;;;4866511;29;20057;-83
2021/05/15 02:13:01;;;;;;;8.35;3.90;;;307.30;2304.00;;;;;;4884464;29;20489;-83
2021/05/15 02:15:27;;;;;;;6.60;3.90;;;307.30;2304.00;;;;;;4883326;29;20037;-83
2021/05/15 02:18:12;;;;;;;9.20;4.05;;;307.30;2304.00;;;;;;4864038;29;20041;-83
2021/05/15 02:20:44;;;;;;;6.70;4.25;;;307.30;2304.00;;;;;;4865278;29;20040;-83
2021/05/15 02:23:14;;;;;;;6.32;3.70;;;307.30;2304.00;;;;;;4864135;29;20506;-83
2021/05/15 02:25:47;;;;;;;8.38;3.85;;;307.40;2304.00;;;;;;4865418;29;20151;-84
2021/05/15 02:28:13;;;;;;;;;;;307.40;2304.00;;;;;;4863880;29;20041;-83
2021/05/15 02:30:44;;;;;;;8.00;3.67;;;307.40;2304.00;;;;;;4863899;29;19908;-87
2021/05/15 02:33:10;;;;;;;6.25;3.42;;;307.40;2304.00;;;;;;4863440;29;20041;-83
2021/05/15 02:35:36;;;;;;;14.40;4.35;;;307.30;2304.00;;;;;;4863494;29;20124;-83
2021/05/15 02:40:28;;;;;;;6.40;4.50;;;307.40;2304.00;;;;;;4973252;23;20079;-83
2021/05/15 02:42:53;;;;;;;5.40;3.33;;;307.40;2304.00;;;;;;4867878;29;20075;-83
2021/05/15 02:45:21;;;;;;;5.10;3.25;;;307.50;2304.00;;;;;;4867741;29;20029;-84
2021/05/15 02:47:52;;;;;;;6.15;3.25;;;307.50;2304.00;;;;;;4869244;29;20098;-83
2021/05/15 02:50:19;;;;;;;8.75;3.35;;;307.50;2304.00;;;;;;4868010;29;20081;-82
2021/05/15 02:52:47;;;;;;;6.10;2.70;;;307.40;2304.00;;;;;;4866949;29;20025;-83
2021/05/15 02:55:15;;;;;;;6.35;3.47;;;307.30;2304.00;;;;;;4868270;29;20490;-85
2021/05/15 02:57:42;;;;;;;8.20;3.45;;;307.30;2304.00;;;;;;4883448;29;20025;-82
2021/05/15 03:00:11;;;;;;;7.15;3.75;;;307.30;2304.00;;;;;;4867951;29;20486;-86
2021/05/15 03:02:36;;;;;;;8.05;4.60;;;307.30;2304.00;;;;;;4866977;29;20423;-83
2021/05/15 03:05:08;;;;;;;9.82;4.20;;;307.20;2304.00;;;;;;4868633;29;20033;-85
2021/05/15 03:07:34;;;;;;;11.77;3.83;;;282.50;2278.40;;;;;;4858860;29;20027;-83
2021/05/15 03:10:00;;;;;;;7.53;3.38;;;307.20;2304.00;;;;;;4848896;29;20060;-83
2021/05/15 03:12:25;;;;;;;4.80;2.78;;;307.20;2304.00;;;;;;4867245;29;20040;-83
2021/05/15 03:14:51;;;;;;;7.30;2.90;;;307.20;2304.00;;;;;;4881464;29;20127;-83
2021/05/15 03:17:23;;;;;;;9.85;3.20;;;282.50;2278.40;;;;;;4863979;29;20036;-83
2021/05/15 03:20:02;;;;;;;7.10;3.17;;;282.50;2278.40;;;;;;4848239;29;20553;-83
2021/05/15 03:22:37;;;;;;;4.78;2.95;;;282.50;2278.40;;;;;;4848950;29;20030;-85
2021/05/15 03:25:05;;;;;;;5.72;2.85;;;282.50;2278.40;;;;;;4847272;29;20025;-83
2021/05/15 03:27:40;;;;;;;5.60;2.97;;;282.40;2278.40;;;;;;4848077;29;20132;-84
2021/05/15 03:30:25;;;;;;;3.25;2.30;;;282.40;2278.40;;;;;;4865622;29;20233;-83
2021/05/15 03:32:51;;;;;;;8.43;2.85;;;282.40;2278.40;;;;;;4850339;29;20067;-83
2021/05/15 03:35:31;;;;;;;9.00;4.15;;;282.40;2278.40;;;;;;4848739;29;20076;-83
2021/05/15 03:37:56;;;;;;;7.13;2.92;;;282.40;2278.40;;;;;;4847714;29;20029;-82
2021/05/15 03:40:34;;;;;;;4.35;3.33;;;282.40;2278.40;;;;;;4824535;29;20093;-84
2021/05/15 03:43:11;;;;;;;5.10;2.90;;;282.40;2278.40;;;;;;4886580;24;20051;-85
2021/05/15 03:45:37;;;;;;;6.15;2.97;;;282.50;2278.40;;;;;;4904552;24;20064;-82
2021/05/15 03:48:05;;;;;;;5.22;3.08;;;282.50;2278.40;;;;;;4900871;29;20044;-86
2021/05/15 03:50:31;;;;;;;10.25;4.00;;;307.20;2304.00;;;;;;4900110;29;20060;-84
2021/05/15 03:52:58;;;;;;;8.48;5.28;;;307.20;2304.00;;;;;;4903096;29;20040;-82
2021/05/15 03:55:25;;;;;;;8.95;3.85;;;307.20;2304.00;;;;;;4902181;29;20040;-83
2021/05/15 03:57:52;;;;;;;9.57;4.53;;;282.50;2278.40;;;;;;4902181;29;20025;-82
2021/05/15 04:00:18;;;;;;;6.70;4.40;;;307.20;2304.00;;;;;;4904934;29;20028;-84
2021/05/15 04:02:46;;;;;;;9.90;5.68;;;307.30;2304.00;;;;;;4901180;29;20088;-83
2021/05/15 04:05:15;;;;;;;8.63;6.38;;;307.30;2304.00;;;;;;4904182;29;20088;-84
2021/05/15 04:07:40;;;;;;;10.38;4.75;;;307.40;2304.00;;;;;;4903194;29;20044;-83
2021/05/15 04:10:09;;;;;;;10.50;5.25;;;307.50;2304.00;;;;;;4915270;29;20131;-83
2021/05/15 04:12:36;;;;;;;11.88;4.63;;;307.60;2304.00;;;;;;4921216;29;20040;-82
2021/05/15 04:15:06;;;;;;;7.00;4.10;;;307.60;2304.00;;;;;;4920979;29;20055;-82
2021/05/15 04:17:33;;;;;;;6.18;3.97;;;307.70;2304.00;;;;;;4922136;29;20033;-83
2021/05/15 04:20:00;;;;;;;6.53;3.65;;;307.90;2304.00;;;;;;4921793;29;20035;-83
2021/05/15 04:22:26;;;;;;;8.07;4.07;;;308.10;2304.00;;;;;;4914849;29;20104;-83
2021/05/15 04:24:53;;;;;;;7.38;3.78;;;308.10;2304.00;;;;;;4914483;29;20040;-82
2021/05/15 04:27:20;;;;;;;7.45;3.28;;;332.80;2329.60;;;;;;4904885;29;20032;-83
2021/05/15 04:29:46;;;;;;;4.78;3.22;;;332.90;2329.60;;;;;;4899200;29;20029;-84
2021/05/15 04:32:12;;;;;;;4.15;2.70;;;332.90;2329.60;;;;;;4898617;29;20371;-83
2021/05/15 04:34:38;;;;;;;6.55;2.95;;;332.90;2329.60;;;;;;4900236;29;20040;-82
2021/05/15 04:37:04;;;;;;;11.63;3.95;;;332.90;2329.60;;;;;;4935465;24;20552;-83
2021/05/15 04:39:33;;;;;;;8.55;3.17;;;333.00;2329.60;;;;;;4885152;29;20037;-86
2021/05/15 04:42:00;;;;;;;4.97;3.08;;;333.10;2329.60;;;;;;4898549;29;20033;-83
2021/05/15 04:44:26;;;;;;;7.90;4.05;;;333.20;2329.60;;;;;;4899153;29;20028;-82
2021/05/15 04:46:51;;;;;;;5.20;2.97;;;333.30;2329.60;;;;;;4903446;29;20044;-85
2021/05/15 04:49:21;;;;;;;7.50;3.45;;;333.40;2329.60;;;;;;4898979;29;20029;-83
2021/05/15 04:51:48;;;;;;;6.65;3.95;;;333.60;2304.00;;;;;;4884367;29;20056;-86
2021/05/15 04:54:14;;;;;;;6.70;3.90;;;333.70;2252.80;;;;;;4898821;29;20119;-85
2021/05/15 04:56:40;;;;;;;5.78;3.15;;;358.50;2252.80;;;;;;4898405;29;20071;-83
2021/05/15 04:59:06;;;;;;;6.45;3.33;;;358.60;2201.60;;;;;;4901163;29;20063;-83
2021/05/15 05:01:32;;;;;;;6.43;3.50;;;358.70;2150.40;;;;;;4898363;29;20089;-84
2021/05/15 05:03:58;;;;;;;4.97;2.65;;;358.80;2150.40;;;;;;4898975;29;20033;-83
2021/05/15 05:06:25;;;;;;;5.18;2.72;;;358.80;2150.40;;;;;;4899353;29;20044;-83
2021/05/15 05:09:12;;;;;;;5.53;2.92;;;358.90;2176.00;;;;;;4898432;29;20024;-83
2021/05/15 05:11:38;;;;;;;4.82;2.30;;;359.20;2150.40;;;;;;4898415;29;20036;-83
2021/05/15 05:14:18;;;;;;;4.32;2.40;;;359.30;2073.60;;;;;;4895332;29;20092;-84
2021/05/15 05:16:56;;;;;;;4.65;2.20;;;359.30;2124.80;;;;;;4898246;29;20056;-83
2021/05/15 05:19:34;;;;;;;6.65;2.35;;;384.10;2073.60;;;;;;4882864;29;20040;-84
2021/05/15 05:22:15;;;;;;;8.68;2.33;;;384.20;2048.00;;;;;;4898896;29;20128;-83
2021/05/15 05:24:47;;;;;;;4.05;2.60;;;384.40;2048.00;;;;;;4900114;29;20036;-86
2021/05/15 05:27:14;;;;;;;6.45;2.85;;;384.60;1996.80;;;;;;4899624;29;20032;-83
2021/05/15 05:29:43;;;;;;;8.45;3.90;;;384.60;1996.80;;;;;;4899371;29;20039;-83
2021/05/15 05:32:24;;;;;;;7.20;3.72;;;384.80;1945.60;;;;;;4898661;29;20032;-84
2021/05/15 05:34:53;;;;;;;11.43;3.38;;;384.90;1920.00;;;;;;4899741;29;20048;-84
2021/05/15 05:37:25;;;;;;;7.60;3.75;;;409.70;1945.60;;;;;;4897692;29;20051;-84
2021/05/15 05:40:14;;;;;;;6.90;3.00;;;409.80;1945.60;;;;;;4898697;29;20097;-83
2021/05/15 05:42:49;;;;;;;12.23;3.60;;;410.00;1920.00;;;;;;4898364;29;20036;-84
2021/05/15 05:45:15;;;;;;;6.18;2.90;;;410.20;1894.40;;;;;;4887351;29;20025;-83
2021/05/15 05:47:41;;;;;;;7.85;2.67;;;410.10;1920.00;;;;;;4901334;29;20127;-82
2021/05/15 05:50:08;;;;;;;7.03;3.03;;;410.10;1894.40;;;;;;4903703;29;20029;-83
2021/05/15 05:52:34;;;;;;;9.20;3.22;;;410.20;1843.20;;;;;;4901257;29;20490;-83
2021/05/15 05:55:00;;;;;;;8.75;4.70;;;410.00;1843.20;;;;;;4901152;29;20129;-83
2021/05/15 05:57:26;;;;;;;5.32;3.22;;;410.00;1817.60;;;;;;4902589;29;20027;-82
2021/05/15 05:59:52;;;;;;;7.45;3.33;;;409.90;1843.20;;;;;;4901848;29;20028;-88
2021/05/15 06:02:18;;;;;;;8.10;3.17;;;410.00;1868.80;;;;;;4901520;29;20103;-80
2021/05/15 06:04:43;;;;;;;3.70;2.80;;;410.00;1868.80;;;;;;4884487;29;20036;-83
2021/05/15 06:07:09;;;;;;;5.45;2.95;;;410.10;1843.20;;;;;;4903047;29;20479;-82
2021/05/15 06:09:35;;;;;;;3.67;2.30;;;410.20;1792.00;;;;;;4900561;29;20027;-85
2021/05/15 06:12:01;;;;;;;5.35;2.60;;;410.20;1766.40;;;;;;4894713;29;20048;-86
2021/05/15 06:14:28;;;;;;;7.05;2.25;;;410.20;1740.80;;;;;;4891144;29;20104;-86
2021/05/15 06:16:53;;;;;;;9.13;2.03;;;410.20;1792.00;;;;;;4887393;29;20044;-83
2021/05/15 06:22:14;;;;;;;6.07;2.33;;;435.30;1766.40;;;;;;4883344;29;20040;-87
2021/05/15 06:25:14;;;;;;;5.10;2.30;;;435.40;1715.20;;;;;;4899772;29;20032;-87
2021/05/15 06:28:06;;;;;;;5.57;2.20;;;435.40;1664.00;;;;;;4907616;29;20028;-85
2021/05/15 06:30:35;;;;;;;4.03;2.13;;;435.80;1664.00;;;;;;4830348;29;20045;-87
2021/05/15 06:33:12;;;;;;;4.78;2.20;;;436.00;1638.40;;;;;;4845758;29;20128;-88
2021/05/15 06:39:37;;;;;;;8.10;2.60;;;436.00;1587.20;;;;;;4844676;29;20669;-89
2021/05/15 06:45:07;;;;;;;8.75;3.00;;;460.90;1612.80;;;;;;4942085;23;20061;-86
2021/05/15 06:50:17;;;;;;;11.27;2.70;;;461.40;1510.40;;;;;;5267841;24;20420;-86
2021/05/15 06:53:14;;;;;;;6.70;2.20;;;461.60;1536.00;;;;;;4902727;29;20032;-86
2021/05/15 06:59:02;;;;;;;3.78;2.05;;;486.80;1484.80;;;;;;4902646;29;20040;-85
2021/05/15 07:05:16;;;;;;;3.70;1.98;;;512.00;1433.60;;;;;;4882976;29;20397;-87
2021/05/15 07:08:19;;;;;;;5.63;1.80;;;512.10;1459.20;;;;;;4867770;29;20041;-88
2021/05/15 07:11:12;;;;;;;;;;;512.20;1356.80;;;;;;4871348;29;20365;-94
2021/05/15 07:13:43;;;;;;;6.53;2.53;;;512.70;1356.80;;;;;;4888142;29;20402;-89
2021/05/15 07:16:09;;;;;;;7.05;2.30;;;537.80;1382.40;;;;;;4886615;29;20162;-87
2021/05/15 07:33:46;;;;;;;11.57;5.25;;;537.80;1331.20;;;;;;4920309;24;20044;-87
2021/05/15 07:36:11;;;;;;;9.05;5.13;;;538.20;1331.20;;;;;;4907288;29;20047;-86
2021/05/15 07:39:23;;;;;;;11.52;3.10;;;563.40;1356.80;;;;;;4905066;29;20040;-85
2021/05/15 07:42:41;;;;;;;10.10;2.47;;;563.80;1280.00;;;;;;4828531;29;20038;-85
2021/05/15 07:49:33;;;;;;;5.82;2.75;;;589.00;1254.40;;;;;;4920176;29;20159;-87
2021/05/15 07:52:01;;;;;;;15.38;5.35;;;589.20;1177.60;;;;;;4902372;29;20035;-91
2021/05/15 07:55:07;;;;;;;6.35;3.55;;;589.30;1203.20;;;;;;4902307;29;20048;-84
2021/05/15 07:57:33;;;;;;;9.85;2.85;;;589.30;1228.80;;;;;;4904301;29;20032;-84
2021/05/15 08:00:35;;;;;;;12.73;6.18;;;589.40;1254.40;;;;;;4898580;29;20564;-86
2021/05/15 08:03:38;;;;;;;8.10;2.85;;;589.40;1280.00;;;;;;4882725;29;20037;-84
2021/05/15 08:09:38;;;;;;;3.75;2.40;;;589.50;1203.20;;;;;;4861354;29;20123;-87
2021/05/15 08:12:26;;;;;;;6.78;2.83;;;589.70;1228.80;;;;;;4846081;29;20066;-85
2021/05/15 08:18:36;;;;;;;6.00;2.75;;;589.60;1203.20;;;;;;4862575;29;20548;-86
2021/05/15 08:30:28;;;;;;;3.55;2.20;;;564.10;1228.80;;;;;;4882355;29;20056;-85
2021/05/15 08:33:04;;;;;;;11.10;2.50;;;563.90;1177.60;;;;;;4895514;29;20132;-87
2021/05/15 08:36:26;;;;;;;5.55;2.70;;;563.40;1228.80;;;;;;4881252;29;20043;-87
2021/05/15 08:39:17;;;;;;;4.05;2.05;;;563.30;1331.20;;;;;;4877338;29;20065;-85
2021/05/15 08:48:37;;;;;;;5.60;2.05;;;563.50;1280.00;;;;;;4882325;29;20044;-85
2021/05/15 08:51:04;;;;;;;5.28;2.03;;;563.60;1177.60;;;;;;4880806;29;20021;-86
2021/05/15 09:02:42;;;;;;;3.30;1.60;;;563.50;1177.60;;;;;;4878939;29;20049;-85
2021/05/15 09:05:13;;;;;;;6.63;1.92;;;563.60;1177.60;;;;;;4862514;29;20494;-83
2021/05/15 09:07:52;;;;;;;6.20;2.00;;;563.50;1152.00;;;;;;4843595;29;20045;-86
2021/05/15 09:10:36;;;;;;;12.80;2.17;;;563.70;1228.80;;;;;;4823913;29;20034;-85
2021/05/15 09:13:19;;;;;;;2.47;1.60;;;563.90;1254.40;;;;;;4804566;29;20605;-88
2021/05/15 09:18:44;;;;;;;8.57;1.88;;;588.80;1254.40;;;;;;4946266;24;20056;-88
2021/05/15 09:21:32;;;;;;;6.32;2.28;;;588.80;1177.60;;;;;;4906157;29;20495;-85
2021/05/15 09:23:58;;;;;;;5.65;2.60;;;588.90;1177.60;;;;;;4906390;29;20020;-86
2021/05/15 09:26:33;;;;;;;3.28;2.10;;;589.00;1177.60;;;;;;4905776;29;20038;-86
2021/05/15 09:29:43;;;;;;;5.07;1.88;;;589.40;1228.80;;;;;;5055155;23;20108;-86
2021/05/15 09:32:42;;;;;;;6.57;2.92;;;589.40;1203.20;;;;;;4864794;29;20038;-89
2021/05/15 09:35:30;;;;;;;5.40;2.42;;;589.70;1152.00;;;;;;4850684;29;20046;-87
2021/05/15 09:38:14;;;;;;;6.80;2.17;;;614.60;1152.00;;;;;;4860395;29;20025;-88
2021/05/15 10:01:04;;;;;;;5.05;1.63;;;640.30;1024.00;;;;;;4875042;29;20182;-87
2021/05/15 10:04:20;;;;;;;11.93;2.30;;;640.00;1075.20;;;;;;4865615;29;20033;-86
2021/05/15 10:07:21;;;;;;;4.97;1.90;;;640.00;1100.80;;;;;;4867221;29;20379;-85
2021/05/15 10:10:04;;;;;;;4.25;1.70;;;615.30;1100.80;;;;;;4776594;30;20032;-86
2021/05/15 10:12:36;;;;;;;5.18;1.80;;;640.00;1075.20;;;;;;4771632;30;20073;-88
2021/05/15 10:15:26;;;;;;;5.82;2.10;;;640.10;1100.80;;;;;;4757693;30;20040;-86
2021/05/15 10:17:52;;;;;;;5.43;2.10;;;640.00;1126.40;;;;;;4766977;24;20575;-86
2021/05/15 10:20:24;;;;;;;3.25;2.00;;;615.20;1126.40;;;;;;4863988;29;20053;-86
2021/05/15 10:22:50;;;;;;;7.78;2.53;;;615.20;1126.40;;;;;;4862608;29;20050;-85
2021/05/15 10:25:16;;;;;;;4.95;2.28;;;615.30;1126.40;;;;;;4881455;29;20010;-85
2021/05/15 10:27:43;;;;;;;8.20;2.00;;;615.30;1126.40;;;;;;4868657;29;20057;-87
2021/05/15 10:30:22;;;;;;;3.85;2.10;;;615.20;1126.40;;;;;;4860069;29;20033;-86
2021/05/15 10:33:01;;;;;;;6.72;2.50;;;615.30;1152.00;;;;;;4854477;29;20037;-86
2021/05/15 10:35:39;;;;;;;4.78;2.88;;;615.30;1126.40;;;;;;4849901;29;20038;-86
2021/05/15 10:38:32;;;;;;;6.22;2.72;;;615.30;1126.40;;;;;;4848895;29;20025;-87
2021/05/15 10:41:18;;;;;;;4.05;3.00;;;640.10;1126.40;;;;;;4867219;29;20100;-86
2021/05/15 10:43:45;;;;;;;6.07;2.25;;;640.10;1100.80;;;;;;4847667;29;20040;-86
2021/05/15 10:46:27;;;;;;;5.50;2.47;;;640.20;1075.20;;;;;;4849563;29;20033;-86
2021/05/15 10:49:11;;;;;;;3.38;2.17;;;640.60;1100.80;;;;;;4865509;29;20102;-86
2021/05/15 10:51:46;;;;;;;7.15;2.20;;;640.40;1049.60;;;;;;4848121;29;20062;-90
2021/05/15 10:54:15;;;;;;;4.55;2.35;;;640.60;1049.60;;;;;;4848641;29;20014;-86
2021/05/15 10:56:41;;;;;;;5.28;2.50;;;692.00;972.80;;;;;;4847703;29;20030;-88
2021/05/15 10:59:17;;;;;;;4.45;2.03;;;819.30;819.20;;;;;;4863643;29;20029;-84
2021/05/15 11:01:54;;;;;;;4.50;2.38;;;819.20;819.20;;;;;;4847814;29;20057;-85
2021/05/15 11:04:31;;;;;;;4.57;2.20;;;845.50;768.00;;;;;;4846369;29;20029;-83
2021/05/15 11:07:11;;;;;;;7.40;2.10;;;845.20;768.00;;;;;;4847866;29;20542;-85
2021/05/15 11:13:08;;;;;;;4.18;1.73;;;768.40;844.80;;;;;;4833757;29;20121;-85
2021/05/15 11:18:29;;;;;;;5.97;2.08;;;717.50;921.60;;;;;;4808357;29;20042;-88
2021/05/15 11:21:06;;;;;;;5.10;1.80;;;691.30;1024.00;;;;;;4816468;29;20133;-84
2021/05/15 11:23:50;;;;;;;7.00;1.90;;;640.70;1049.60;;;;;;4814803;29;20112;-82
2021/05/15 11:26:20;;;;;;;2.53;1.60;;;640.10;1126.40;;;;;;4843760;29;20038;-84
2021/05/15 11:28:47;;;;;;;4.07;2.08;;;615.20;1152.00;;;;;;4828635;29;20030;-84
2021/05/15 11:31:15;;;;;;;7.40;3.42;;;614.70;1203.20;;;;;;4843248;29;20090;-85
2021/05/15 11:33:41;;;;;;;3.30;1.65;;;589.10;1382.40;;;;;;4844389;29;20032;-84
2021/05/15 11:36:07;;;;;;;2.55;1.30;;;564.00;1433.60;;;;;;4827701;29;20144;-83
2021/05/15 11:38:36;;;;;;;6.07;2.05;;;589.20;1382.40;;;;;;4844886;29;20042;-84
2021/05/15 11:41:10;;;;;;;4.57;1.80;;;589.60;1254.40;;;;;;4844404;29;20498;-84
2021/05/15 11:43:38;;;;;;;5.47;2.08;;;614.90;1228.80;;;;;;4832506;29;20440;-84
2021/05/15 11:46:08;;;;;;;3.10;1.70;;;615.30;1152.00;;;;;;4867230;29;20105;-84
2021/05/15 11:48:40;;;;;;;5.00;2.30;;;640.20;1100.80;;;;;;4880670;29;20033;-84
2021/05/15 11:51:14;;;;;;;5.30;1.77;;;665.70;1100.80;;;;;;4881033;29;20056;-84
2021/05/15 11:53:41;;;;;;;5.18;2.63;;;691.30;1049.60;;;;;;4882074;29;20029;-85
2021/05/15 11:56:20;;;;;;;4.38;2.00;;;691.30;1049.60;;;;;;4880456;29;20040;-84
2021/05/15 11:58:51;;;;;;;6.55;1.50;;;691.70;1024.00;;;;;;4880188;29;20041;-84
2021/05/15 12:01:21;;;;;;;4.15;2.25;;;691.20;1075.20;;;;;;4880529;29;20033;-85
2021/05/15 12:03:47;;;;;;;2.92;2.40;;;691.70;1049.60;;;;;;4881801;29;20482;-84
2021/05/15 12:06:15;;;;;;;6.57;2.03;;;691.90;1024.00;;;;;;4879930;29;20104;-85
2021/05/15 12:08:41;;;;;;;2.90;1.70;;;691.90;1049.60;;;;;;4881381;29;20173;-87
2021/05/15 12:11:09;;;;;;;5.88;2.15;;;692.00;998.40;;;;;;4881839;29;20024;-88
2021/05/15 12:13:35;;;;;;;3.95;2.15;;;717.50;972.80;;;;;;4881866;29;20479;-84
2021/05/15 12:16:03;;;;;;;2.72;1.73;;;794.50;870.40;;;;;;4879934;29;20051;-85
2021/05/15 12:18:30;;;;;;;4.47;1.88;;;845.10;819.20;;;;;;4879664;29;20096;-85
2021/05/15 12:20:56;;;;;;;4.68;2.10;;;794.40;844.80;;;;;;4881956;29;20118;-84
2021/05/15 12:23:24;;;;;;;5.57;2.22;;;793.60;870.40;;;;;;4879739;29;20388;-86
2021/05/15 12:26:01;;;;;;;6.25;1.67;;;768.60;870.40;;;;;;4880129;29;20446;-83
2021/05/15 12:28:31;;;;;;;4.47;1.67;;;743.20;870.40;;;;;;4881076;29;20021;-84
2021/05/15 12:31:02;;;;;;;4.68;2.30;;;742.80;896.00;;;;;;4880341;29;20033;-83
2021/05/15 12:33:29;;;;;;;5.18;1.83;;;717.70;870.40;;;;;;4880348;29;20033;-83
2021/05/15 12:36:08;;;;;;;4.55;2.70;;;717.40;921.60;;;;;;4879907;29;20045;-83
2021/05/15 12:38:46;;;;;;;8.35;4.53;;;717.60;896.00;;;;;;4883472;29;20017;-85
2021/05/15 12:41:17;;;;;;;7.75;3.08;;;717.60;921.60;;;;;;4881791;29;20051;-83
2021/05/15 12:43:47;;;;;;;5.32;2.00;;;768.80;844.80;;;;;;4882145;29;20076;-83
2021/05/15 12:46:15;;;;;;;5.22;1.75;;;794.20;844.80;;;;;;4881298;29;20025;-83
2021/05/15 12:48:43;;;;;;;4.05;2.55;;;743.10;896.00;;;;;;4880689;29;20036;-83
2021/05/15 12:51:15;;;;;;;6.70;2.35;;;742.80;921.60;;;;;;4881133;29;20575;-84
2021/05/15 12:53:41;;;;;;;8.90;2.78;;;742.70;947.20;;;;;;4879161;29;20040;-83
2021/05/15 12:56:12;;;;;;;5.13;2.08;;;717.50;947.20;;;;;;4880463;29;20048;-82
2021/05/15 12:58:39;;;;;;;7.63;3.03;;;742.60;947.20;;;;;;4881631;29;20036;-82
2021/05/15 13:01:07;;;;;;;5.00;3.17;;;870.80;768.00;;;;;;4879871;29;20029;-83
2021/05/15 13:03:37;;;;;;;4.13;2.33;;;922.40;665.60;;;;;;4881168;29;20029;-85
2021/05/15 13:06:15;;;;;;;4.60;2.20;;;1024.30;588.80;;;;;;4883616;29;20029;-84
2021/05/15 13:08:41;;;;;;;3.88;2.47;;;1075.40;563.20;;;;;;4881448;29;20100;-84
2021/05/15 13:11:18;;;;;;;4.05;1.80;;;1101.20;537.60;;;;;;4880457;29;20025;-84
2021/05/15 13:13:45;;;;;;;5.68;2.53;;;1075.30;537.60;;;;;;4884849;29;20025;-82
2021/05/15 13:16:12;;;;;;;4.28;2.00;;;1024.10;588.80;;;;;;4890046;29;20517;-84
2021/05/15 13:18:58;;;;;;;4.88;1.95;;;1050.00;563.20;;;;;;4894168;29;20068;-85
2021/05/15 13:21:30;;;;;;;6.97;2.70;;;1076.10;537.60;;;;;;4898848;29;20052;-87
2021/05/15 13:23:55;;;;;;;3.53;1.92;;;1101.00;512.00;;;;;;4896893;29;20037;-86
2021/05/15 13:26:36;;;;;;;6.97;5.63;;;1024.50;563.20;;;;;;4891952;29;20148;-86
2021/05/15 13:31:29;;;;;;;7.70;2.45;;;1050.00;563.20;;;;;;4860332;23;20057;-86
2021/05/15 13:33:55;;;;;;;4.35;2.30;;;999.30;588.80;;;;;;4865268;29;20624;-88
2021/05/15 13:36:23;;;;;;;4.13;3.20;;;947.60;640.00;;;;;;4852576;29;20045;-86
2021/05/15 13:38:49;;;;;;;7.20;2.88;;;973.50;614.40;;;;;;4846242;29;20030;-85
2021/05/15 13:41:15;;;;;;;5.22;2.30;;;998.60;614.40;;;;;;4850074;29;20042;-86
2021/05/15 13:43:41;;;;;;;6.15;2.20;;;1024.10;614.40;;;;;;4844363;29;20122;-86
2021/05/15 13:46:07;;;;;;;5.28;1.60;;;1049.70;614.40;;;;;;4843494;29;20045;-86
2021/05/15 13:48:33;;;;;;;5.07;3.60;;;998.40;640.00;;;;;;4841993;29;20053;-87
2021/05/15 13:51:22;;;;;;;7.60;4.22;;;998.80;614.40;;;;;;4844859;29;20029;-85
2021/05/15 13:53:56;;;;;;;5.80;3.25;;;999.00;588.80;;;;;;4846077;29;20053;-84
2021/05/15 13:56:29;;;;;;;4.43;2.05;;;973.60;588.80;;;;;;4843462;29;20066;-86
2021/05/15 13:58:55;;;;;;;4.13;2.08;;;921.60;691.20;;;;;;4845570;29;20553;-84
2021/05/15 14:01:43;;;;;;;4.13;2.22;;;896.10;691.20;;;;;;4827257;29;20034;-84
2021/05/15 14:04:24;;;;;;;4.28;2.03;;;871.00;742.40;;;;;;4842214;29;20042;-84
2021/05/15 14:07:05;;;;;;;3.33;2.05;;;819.70;793.60;;;;;;4845761;29;20042;-86
2021/05/15 14:09:31;;;;;;;3.27;2.33;;;819.30;819.20;;;;;;4846269;29;20502;-85
2021/05/15 14:11:59;;;;;;;3.95;3.65;;;819.30;819.20;;;;;;4845990;29;20034;-83
2021/05/15 14:14:25;;;;;;;4.97;3.13;;;844.90;793.60;;;;;;4847508;29;20403;-85
2021/05/15 14:16:51;;;;;;;3.75;2.88;;;870.80;742.40;;;;;;4850691;29;20038;-88
2021/05/15 14:19:19;;;;;;;4.45;2.45;;;896.30;691.20;;;;;;4855335;29;20051;-90
2021/05/15 14:21:48;;;;;;;4.88;2.25;;;845.20;793.60;;;;;;4856584;29;20063;-89
2021/05/15 14:24:17;;;;;;;3.58;2.17;;;794.50;844.80;;;;;;4860923;29;20022;-87
2021/05/15 14:26:42;;;;;;;5.03;3.00;;;768.40;870.40;;;;;;4857943;29;20033;-87
2021/05/15 14:29:14;;;;;;;9.13;3.05;;;768.00;921.60;;;;;;4857580;29;20057;-86
2021/05/15 14:31:40;;;;;;;6.63;1.65;;;742.90;947.20;;;;;;4854652;29;20110;-86
2021/05/15 14:34:09;;;;;;;5.70;2.55;;;717.60;947.20;;;;;;4873509;29;20038;-87